sensor_id;sensor_type;location;lat;lon;timestamp;temperature;humidity
17266;DHT22;8749;47.076;15.412;2022-09-19T00:01:11;14.30;99.90
17266;DHT22;8749;47.076;15.412;2022-09-19T00:03:38;14.30;99.90
17266;DHT22;8749;47.076;15.412;2022-09-19T00:06:05;14.30;99.90
17266;DHT22;8749;47.076;15.412;2022-09-19T00:08:33;14.30;99.90
17266;DHT22;8749;47.076;15.412;2022-09-19T00:11:01;14.30;99.90
17266;DHT22;8749;47.076;15.412;2022-09-19T00:13:28;14.30;99.90
17266;DHT22;8749;47.076;15.412;2022-09-19T00:15:56;14.30;99.90
17266;DHT22;8749;47.076;15.412;2022-09-19T00:18:25;14.20;99.90
17266;DHT22;8749;47.076;15.412;2022-09-19T00:20:53;14.20;99.90
17266;DHT22;8749;47.076;15.412;2022-09-19T00:23:20;14.20;99.90
17266;DHT22;8749;47.076;15.412;2022-09-19T00:26:07;14.30;99.90
17266;DHT22;8749;47.076;15.412;2022-09-19T00:28:35;14.30;99.90
17266;DHT22;8749;47.076;15.412;2022-09-19T00:31:03;14.30;99.90
17266;DHT22;8749;47.076;15.412;2022-09-19T00:33:33;14.30;99.90
17266;DHT22;8749;47.076;15.412;2022-09-19T00:36:01;14.30;99.90
17266;DHT22;8749;47.076;15.412;2022-09-19T00:38:30;14.30;99.90
17266;DHT22;8749;47.076;15.412;2022-09-19T00:40:58;14.30;99.90
17266;DHT22;8749;47.076;15.412;2022-09-19T00:43:44;14.30;99.90
17266;DHT22;8749;47.076;15.412;2022-09-19T00:46:12;14.30;99.90
17266;DHT22;8749;47.076;15.412;2022-09-19T00:48:40;14.20;99.90
17266;DHT22;8749;47.076;15.412;2022-09-19T00:51:12;14.20;99.90
17266;DHT22;8749;47.076;15.412;2022-09-19T00:53:40;14.20;99.90
17266;DHT22;8749;47.076;15.412;2022-09-19T00:56:08;14.00;99.90
17266;DHT22;8749;47.076;15.412;2022-09-19T00:58:38;13.80;99.90
17266;DHT22;8749;47.076;15.412;2022-09-19T01:01:05;13.60;99.90
17266;DHT22;8749;47.076;15.412;2022-09-19T01:03:32;13.50;99.90
17266;DHT22;8749;47.076;15.412;2022-09-19T01:06:09;13.60;99.90
17266;DHT22;8749;47.076;15.412;2022-09-19T01:09:08;13.70;99.90
17266;DHT22;8749;47.076;15.412;2022-09-19T01:11:51;13.80;99.90
17266;DHT22;8749;47.076;15.412;2022-09-19T01:14:29;13.80;99.90
17266;DHT22;8749;47.076;15.412;2022-09-19T01:17:08;13.80;99.90
17266;DHT22;8749;47.076;15.412;2022-09-19T01:20:08;13.90;99.90
17266;DHT22;8749;47.076;15.412;2022-09-19T01:22:49;13.90;99.90
17266;DHT22;8749;47.076;15.412;2022-09-19T01:25:25;13.90;99.90
17266;DHT22;8749;47.076;15.412;2022-09-19T01:28:11;13.90;99.90
17266;DHT22;8749;47.076;15.412;2022-09-19T01:30:46;13.80;99.90
17266;DHT22;8749;47.076;15.412;2022-09-19T01:33:36;13.70;99.90
17266;DHT22;8749;47.076;15.412;2022-09-19T01:36:06;13.80;99.90
17266;DHT22;8749;47.076;15.412;2022-09-19T01:38:36;13.70;99.90
17266;DHT22;8749;47.076;15.412;2022-09-19T01:41:06;13.60;99.90
17266;DHT22;8749;47.076;15.412;2022-09-19T01:43:36;13.60;99.90
17266;DHT22;8749;47.076;15.412;2022-09-19T01:46:09;13.70;99.90
17266;DHT22;8749;47.076;15.412;2022-09-19T01:48:43;13.70;99.90
17266;DHT22;8749;47.076;15.412;2022-09-19T01:51:21;13.70;99.90
17266;DHT22;8749;47.076;15.412;2022-09-19T01:54:12;13.70;99.90
17266;DHT22;8749;47.076;15.412;2022-09-19T01:56:54;13.80;99.90
17266;DHT22;8749;47.076;15.412;2022-09-19T01:59:36;13.80;99.90
17266;DHT22;8749;47.076;15.412;2022-09-19T02:02:14;13.80;99.90
17266;DHT22;8749;47.076;15.412;2022-09-19T02:04:51;13.90;99.90
17266;DHT22;8749;47.076;15.412;2022-09-19T02:07:28;13.80;99.90
17266;DHT22;8749;47.076;15.412;2022-09-19T02:10:12;13.80;99.90
17266;DHT22;8749;47.076;15.412;2022-09-19T02:12:41;13.80;99.90
17266;DHT22;8749;47.076;15.412;2022-09-19T02:15:13;13.70;99.90
17266;DHT22;8749;47.076;15.412;2022-09-19T02:17:46;13.70;99.90
17266;DHT22;8749;47.076;15.412;2022-09-19T02:20:19;13.60;99.90
17266;DHT22;8749;47.076;15.412;2022-09-19T02:22:50;13.60;99.90
17266;DHT22;8749;47.076;15.412;2022-09-19T02:25:21;13.60;99.90
17266;DHT22;8749;47.076;15.412;2022-09-19T02:27:51;13.60;99.90
17266;DHT22;8749;47.076;15.412;2022-09-19T02:30:22;13.60;99.90
17266;DHT22;8749;47.076;15.412;2022-09-19T02:32:49;13.60;99.90
17266;DHT22;8749;47.076;15.412;2022-09-19T02:35:20;13.60;99.90
17266;DHT22;8749;47.076;15.412;2022-09-19T02:38:00;13.70;99.90
17266;DHT22;8749;47.076;15.412;2022-09-19T02:40:32;13.70;99.90
17266;DHT22;8749;47.076;15.412;2022-09-19T02:43:05;13.70;99.90
17266;DHT22;8749;47.076;15.412;2022-09-19T02:45:38;13.60;99.90
17266;DHT22;8749;47.076;15.412;2022-09-19T02:48:11;13.60;99.90
17266;DHT22;8749;47.076;15.412;2022-09-19T02:50:41;13.50;99.90
17266;DHT22;8749;47.076;15.412;2022-09-19T02:53:13;13.50;99.90
17266;DHT22;8749;47.076;15.412;2022-09-19T02:55:45;13.50;99.90
17266;DHT22;8749;47.076;15.412;2022-09-19T02:58:15;13.40;99.90
17266;DHT22;8749;47.076;15.412;2022-09-19T03:00:46;13.40;99.90
17266;DHT22;8749;47.076;15.412;2022-09-19T03:03:22;13.40;99.90
17266;DHT22;8749;47.076;15.412;2022-09-19T03:06:09;13.50;99.90
17266;DHT22;8749;47.076;15.412;2022-09-19T03:08:38;13.50;99.90
17266;DHT22;8749;47.076;15.412;2022-09-19T03:11:09;13.50;99.90
17266;DHT22;8749;47.076;15.412;2022-09-19T03:13:39;13.60;99.90
17266;DHT22;8749;47.076;15.412;2022-09-19T03:16:10;13.60;99.90
17266;DHT22;8749;47.076;15.412;2022-09-19T03:18:41;13.60;99.90
17266;DHT22;8749;47.076;15.412;2022-09-19T03:21:10;13.60;99.90
17266;DHT22;8749;47.076;15.412;2022-09-19T03:23:40;13.50;99.90
17266;DHT22;8749;47.076;15.412;2022-09-19T03:26:10;13.40;99.90
17266;DHT22;8749;47.076;15.412;2022-09-19T03:28:37;13.40;99.90
17266;DHT22;8749;47.076;15.412;2022-09-19T03:31:04;13.30;99.90
17266;DHT22;8749;47.076;15.412;2022-09-19T03:33:33;13.30;99.90
17266;DHT22;8749;47.076;15.412;2022-09-19T03:36:00;13.30;99.90
17266;DHT22;8749;47.076;15.412;2022-09-19T03:38:32;13.30;99.90
17266;DHT22;8749;47.076;15.412;2022-09-19T03:40:59;13.30;99.90
17266;DHT22;8749;47.076;15.412;2022-09-19T03:43:25;13.20;99.90
17266;DHT22;8749;47.076;15.412;2022-09-19T03:45:55;13.10;99.90
17266;DHT22;8749;47.076;15.412;2022-09-19T03:48:22;13.10;99.90
17266;DHT22;8749;47.076;15.412;2022-09-19T03:50:50;13.00;99.90
17266;DHT22;8749;47.076;15.412;2022-09-19T03:53:17;13.00;99.90
17266;DHT22;8749;47.076;15.412;2022-09-19T03:55:46;12.90;99.90
17266;DHT22;8749;47.076;15.412;2022-09-19T03:58:13;12.90;99.90
17266;DHT22;8749;47.076;15.412;2022-09-19T04:00:40;12.80;99.90
17266;DHT22;8749;47.076;15.412;2022-09-19T04:03:07;12.80;99.90
17266;DHT22;8749;47.076;15.412;2022-09-19T04:05:34;12.80;99.90
17266;DHT22;8749;47.076;15.412;2022-09-19T04:08:03;12.90;99.90
17266;DHT22;8749;47.076;15.412;2022-09-19T04:10:29;12.80;99.90
17266;DHT22;8749;47.076;15.412;2022-09-19T04:12:56;12.80;99.90
17266;DHT22;8749;47.076;15.412;2022-09-19T04:15:23;12.80;99.90
17266;DHT22;8749;47.076;15.412;2022-09-19T04:17:50;12.80;99.90
17266;DHT22;8749;47.076;15.412;2022-09-19T04:20:17;12.80;99.90
17266;DHT22;8749;47.076;15.412;2022-09-19T04:22:44;12.80;99.90
17266;DHT22;8749;47.076;15.412;2022-09-19T04:25:13;12.80;99.90
17266;DHT22;8749;47.076;15.412;2022-09-19T04:27:40;12.80;99.90
17266;DHT22;8749;47.076;15.412;2022-09-19T04:30:10;12.70;99.90
17266;DHT22;8749;47.076;15.412;2022-09-19T04:32:39;12.70;99.90
17266;DHT22;8749;47.076;15.412;2022-09-19T04:35:07;12.70;99.90
17266;DHT22;8749;47.076;15.412;2022-09-19T04:37:34;12.60;99.90
17266;DHT22;8749;47.076;15.412;2022-09-19T04:40:01;12.50;99.90
17266;DHT22;8749;47.076;15.412;2022-09-19T04:42:29;12.50;99.90
17266;DHT22;8749;47.076;15.412;2022-09-19T04:44:58;12.50;99.90
17266;DHT22;8749;47.076;15.412;2022-09-19T04:47:25;12.50;99.90
17266;DHT22;8749;47.076;15.412;2022-09-19T04:49:53;12.60;99.90
17266;DHT22;8749;47.076;15.412;2022-09-19T04:52:22;12.60;99.90
17266;DHT22;8749;47.076;15.412;2022-09-19T04:54:50;12.60;99.90
17266;DHT22;8749;47.076;15.412;2022-09-19T04:57:20;12.70;99.90
17266;DHT22;8749;47.076;15.412;2022-09-19T04:59:48;12.70;99.90
17266;DHT22;8749;47.076;15.412;2022-09-19T05:02:15;12.80;99.90
17266;DHT22;8749;47.076;15.412;2022-09-19T05:04:44;12.80;99.90
17266;DHT22;8749;47.076;15.412;2022-09-19T05:07:11;12.80;99.90
17266;DHT22;8749;47.076;15.412;2022-09-19T05:09:39;12.80;99.90
17266;DHT22;8749;47.076;15.412;2022-09-19T05:12:07;12.80;99.90
17266;DHT22;8749;47.076;15.412;2022-09-19T05:14:35;12.90;99.90
17266;DHT22;8749;47.076;15.412;2022-09-19T05:17:03;12.90;99.90
17266;DHT22;8749;47.076;15.412;2022-09-19T05:19:30;12.90;99.90
17266;DHT22;8749;47.076;15.412;2022-09-19T05:21:57;13.00;99.90
17266;DHT22;8749;47.076;15.412;2022-09-19T05:24:24;13.00;99.90
17266;DHT22;8749;47.076;15.412;2022-09-19T05:26:54;13.00;99.90
17266;DHT22;8749;47.076;15.412;2022-09-19T05:29:22;13.00;99.90
17266;DHT22;8749;47.076;15.412;2022-09-19T05:31:49;13.00;99.90
17266;DHT22;8749;47.076;15.412;2022-09-19T05:34:17;13.10;99.90
17266;DHT22;8749;47.076;15.412;2022-09-19T05:36:44;13.00;99.90
17266;DHT22;8749;47.076;15.412;2022-09-19T05:39:13;13.00;99.90
17266;DHT22;8749;47.076;15.412;2022-09-19T05:41:40;13.00;99.90
17266;DHT22;8749;47.076;15.412;2022-09-19T05:44:07;13.00;99.90
17266;DHT22;8749;47.076;15.412;2022-09-19T05:46:34;13.00;99.90
17266;DHT22;8749;47.076;15.412;2022-09-19T05:49:01;13.00;99.90
17266;DHT22;8749;47.076;15.412;2022-09-19T05:51:29;13.00;99.90
17266;DHT22;8749;47.076;15.412;2022-09-19T05:53:56;12.90;99.90
17266;DHT22;8749;47.076;15.412;2022-09-19T05:56:23;12.90;99.90
17266;DHT22;8749;47.076;15.412;2022-09-19T05:58:51;12.90;99.90
17266;DHT22;8749;47.076;15.412;2022-09-19T06:01:19;12.90;99.90
17266;DHT22;8749;47.076;15.412;2022-09-19T06:03:45;13.00;99.90
17266;DHT22;8749;47.076;15.412;2022-09-19T06:06:14;13.00;99.90
17266;DHT22;8749;47.076;15.412;2022-09-19T06:08:46;13.10;99.90
17266;DHT22;8749;47.076;15.412;2022-09-19T06:11:14;13.20;99.90
17266;DHT22;8749;47.076;15.412;2022-09-19T06:13:41;13.30;99.90
17266;DHT22;8749;47.076;15.412;2022-09-19T06:16:25;13.30;99.90
17266;DHT22;8749;47.076;15.412;2022-09-19T06:18:52;13.40;99.90
17266;DHT22;8749;47.076;15.412;2022-09-19T06:21:19;13.40;99.90
17266;DHT22;8749;47.076;15.412;2022-09-19T06:23:47;13.40;99.90
17266;DHT22;8749;47.076;15.412;2022-09-19T06:26:14;13.40;99.90
17266;DHT22;8749;47.076;15.412;2022-09-19T06:28:41;13.50;99.90
17266;DHT22;8749;47.076;15.412;2022-09-19T06:31:09;13.60;99.90
17266;DHT22;8749;47.076;15.412;2022-09-19T06:33:35;13.70;99.90
17266;DHT22;8749;47.076;15.412;2022-09-19T06:36:03;13.70;99.90
17266;DHT22;8749;47.076;15.412;2022-09-19T06:38:30;13.80;99.90
17266;DHT22;8749;47.076;15.412;2022-09-19T06:40:59;13.80;99.90
17266;DHT22;8749;47.076;15.412;2022-09-19T06:43:26;13.90;99.90
17266;DHT22;8749;47.076;15.412;2022-09-19T06:45:56;14.00;99.90
17266;DHT22;8749;47.076;15.412;2022-09-19T06:48:23;14.10;99.90
17266;DHT22;8749;47.076;15.412;2022-09-19T06:50:50;14.10;99.90
17266;DHT22;8749;47.076;15.412;2022-09-19T06:53:18;14.10;99.90
17266;DHT22;8749;47.076;15.412;2022-09-19T06:55:45;14.20;99.90
17266;DHT22;8749;47.076;15.412;2022-09-19T06:58:14;14.20;99.90
17266;DHT22;8749;47.076;15.412;2022-09-19T07:00:42;14.30;99.90
17266;DHT22;8749;47.076;15.412;2022-09-19T07:03:12;14.40;99.90
17266;DHT22;8749;47.076;15.412;2022-09-19T07:05:40;14.50;99.90
17266;DHT22;8749;47.076;15.412;2022-09-19T07:08:08;14.50;99.90
17266;DHT22;8749;47.076;15.412;2022-09-19T07:10:36;14.60;99.90
17266;DHT22;8749;47.076;15.412;2022-09-19T07:13:04;14.70;99.90
17266;DHT22;8749;47.076;15.412;2022-09-19T07:15:34;14.80;99.90
17266;DHT22;8749;47.076;15.412;2022-09-19T07:18:02;14.80;99.90
17266;DHT22;8749;47.076;15.412;2022-09-19T07:20:34;14.90;99.90
17266;DHT22;8749;47.076;15.412;2022-09-19T07:23:03;15.00;99.90
17266;DHT22;8749;47.076;15.412;2022-09-19T07:25:31;15.00;99.90
17266;DHT22;8749;47.076;15.412;2022-09-19T07:28:00;15.10;99.90
17266;DHT22;8749;47.076;15.412;2022-09-19T07:30:27;15.20;99.90
17266;DHT22;8749;47.076;15.412;2022-09-19T07:32:56;15.30;99.90
17266;DHT22;8749;47.076;15.412;2022-09-19T07:35:24;15.40;98.60
17266;DHT22;8749;47.076;15.412;2022-09-19T07:37:52;15.30;98.80
17266;DHT22;8749;47.076;15.412;2022-09-19T07:40:19;15.30;97.40
17266;DHT22;8749;47.076;15.412;2022-09-19T07:42:46;15.40;96.90
17266;DHT22;8749;47.076;15.412;2022-09-19T07:45:13;15.40;97.20
17266;DHT22;8749;47.076;15.412;2022-09-19T07:47:42;15.40;97.10
17266;DHT22;8749;47.076;15.412;2022-09-19T07:50:11;15.40;95.90
17266;DHT22;8749;47.076;15.412;2022-09-19T07:52:43;15.50;95.10
17266;DHT22;8749;47.076;15.412;2022-09-19T07:55:12;15.40;94.40
17266;DHT22;8749;47.076;15.412;2022-09-19T07:57:48;15.30;93.70
17266;DHT22;8749;47.076;15.412;2022-09-19T08:00:15;15.30;94.30
17266;DHT22;8749;47.076;15.412;2022-09-19T08:02:42;15.20;93.30
17266;DHT22;8749;47.076;15.412;2022-09-19T08:05:11;15.20;94.30
17266;DHT22;8749;47.076;15.412;2022-09-19T08:07:37;15.40;94.60
17266;DHT22;8749;47.076;15.412;2022-09-19T08:10:05;15.50;94.20
17266;DHT22;8749;47.076;15.412;2022-09-19T08:12:32;15.60;93.50
17266;DHT22;8749;47.076;15.412;2022-09-19T08:14:59;15.70;93.60
17266;DHT22;8749;47.076;15.412;2022-09-19T08:17:27;15.80;93.90
17266;DHT22;8749;47.076;15.412;2022-09-19T08:19:53;15.90;92.90
17266;DHT22;8749;47.076;15.412;2022-09-19T08:22:23;15.90;92.60
17266;DHT22;8749;47.076;15.412;2022-09-19T08:24:50;16.00;92.70
17266;DHT22;8749;47.076;15.412;2022-09-19T08:27:17;16.00;92.60
17266;DHT22;8749;47.076;15.412;2022-09-19T08:29:45;16.10;92.20
17266;DHT22;8749;47.076;15.412;2022-09-19T08:32:12;16.10;92.00
17266;DHT22;8749;47.076;15.412;2022-09-19T08:34:39;16.30;91.90
17266;DHT22;8749;47.076;15.412;2022-09-19T08:37:06;16.40;92.60
17266;DHT22;8749;47.076;15.412;2022-09-19T08:39:34;16.60;92.80
17266;DHT22;8749;47.076;15.412;2022-09-19T08:42:09;16.80;92.10
17266;DHT22;8749;47.076;15.412;2022-09-19T08:44:54;16.80;91.20
17266;DHT22;8749;47.076;15.412;2022-09-19T08:47:24;17.00;92.10
17266;DHT22;8749;47.076;15.412;2022-09-19T08:49:56;17.10;90.60
17266;DHT22;8749;47.076;15.412;2022-09-19T08:52:32;17.10;91.30
17266;DHT22;8749;47.076;15.412;2022-09-19T08:55:06;17.10;91.70
17266;DHT22;8749;47.076;15.412;2022-09-19T08:57:36;17.20;91.40
17266;DHT22;8749;47.076;15.412;2022-09-19T09:00:06;17.30;90.50
17266;DHT22;8749;47.076;15.412;2022-09-19T09:02:39;17.30;90.20
17266;DHT22;8749;47.076;15.412;2022-09-19T09:05:12;17.40;90.00
17266;DHT22;8749;47.076;15.412;2022-09-19T09:07:49;17.50;89.70
17266;DHT22;8749;47.076;15.412;2022-09-19T09:10:27;17.50;90.70
17266;DHT22;8749;47.076;15.412;2022-09-19T09:13:05;17.70;87.40
17266;DHT22;8749;47.076;15.412;2022-09-19T09:15:49;17.70;87.40
17266;DHT22;8749;47.076;15.412;2022-09-19T09:18:43;17.70;87.70
17266;DHT22;8749;47.076;15.412;2022-09-19T09:21:19;17.70;87.70
17266;DHT22;8749;47.076;15.412;2022-09-19T09:23:49;17.80;88.20
17266;DHT22;8749;47.076;15.412;2022-09-19T09:26:23;17.80;86.80
17266;DHT22;8749;47.076;15.412;2022-09-19T09:28:54;18.00;86.80
17266;DHT22;8749;47.076;15.412;2022-09-19T09:31:26;18.00;85.10
17266;DHT22;8749;47.076;15.412;2022-09-19T09:33:57;18.00;83.70
17266;DHT22;8749;47.076;15.412;2022-09-19T09:36:31;18.00;83.50
17266;DHT22;8749;47.076;15.412;2022-09-19T09:39:05;18.20;84.80
17266;DHT22;8749;47.076;15.412;2022-09-19T09:41:39;18.20;82.60
17266;DHT22;8749;47.076;15.412;2022-09-19T09:44:49;18.20;80.80
17266;DHT22;8749;47.076;15.412;2022-09-19T09:47:25;18.00;81.20
17266;DHT22;8749;47.076;15.412;2022-09-19T09:49:58;18.00;81.00
17266;DHT22;8749;47.076;15.412;2022-09-19T09:52:34;17.80;80.70
17266;DHT22;8749;47.076;15.412;2022-09-19T09:55:19;17.30;79.60
17266;DHT22;8749;47.076;15.412;2022-09-19T09:58:13;17.30;79.50
17266;DHT22;8749;47.076;15.412;2022-09-19T10:00:44;17.00;80.70
17266;DHT22;8749;47.076;15.412;2022-09-19T10:03:35;16.70;81.10
17266;DHT22;8749;47.076;15.412;2022-09-19T10:06:12;16.80;81.60
17266;DHT22;8749;47.076;15.412;2022-09-19T10:08:45;16.90;82.10
17266;DHT22;8749;47.076;15.412;2022-09-19T10:11:16;16.80;82.10
17266;DHT22;8749;47.076;15.412;2022-09-19T10:13:48;16.90;83.20
17266;DHT22;8749;47.076;15.412;2022-09-19T10:16:18;17.00;82.90
17266;DHT22;8749;47.076;15.412;2022-09-19T10:18:50;17.10;81.90
17266;DHT22;8749;47.076;15.412;2022-09-19T10:21:19;17.00;82.00
17266;DHT22;8749;47.076;15.412;2022-09-19T10:23:46;17.10;81.80
17266;DHT22;8749;47.076;15.412;2022-09-19T10:26:15;16.90;81.60
17266;DHT22;8749;47.076;15.412;2022-09-19T10:28:49;16.90;81.40
17266;DHT22;8749;47.076;15.412;2022-09-19T10:31:22;17.10;82.90
17266;DHT22;8749;47.076;15.412;2022-09-19T10:33:49;17.30;83.10
17266;DHT22;8749;47.076;15.412;2022-09-19T10:36:19;17.50;82.80
17266;DHT22;8749;47.076;15.412;2022-09-19T10:38:51;17.60;81.70
17266;DHT22;8749;47.076;15.412;2022-09-19T10:41:24;17.70;81.70
17266;DHT22;8749;47.076;15.412;2022-09-19T10:43:54;17.80;80.90
17266;DHT22;8749;47.076;15.412;2022-09-19T10:46:24;17.80;82.40
17266;DHT22;8749;47.076;15.412;2022-09-19T10:49:04;17.80;80.20
17266;DHT22;8749;47.076;15.412;2022-09-19T10:51:34;17.70;79.20
17266;DHT22;8749;47.076;15.412;2022-09-19T10:54:08;17.80;77.00
17266;DHT22;8749;47.076;15.412;2022-09-19T10:56:39;17.70;78.80
17266;DHT22;8749;47.076;15.412;2022-09-19T10:59:23;17.80;78.90
17266;DHT22;8749;47.076;15.412;2022-09-19T11:02:18;18.00;80.00
17266;DHT22;8749;47.076;15.412;2022-09-19T11:04:53;18.30;78.70
17266;DHT22;8749;47.076;15.412;2022-09-19T11:07:24;18.40;77.40
17266;DHT22;8749;47.076;15.412;2022-09-19T11:09:54;18.30;78.00
17266;DHT22;8749;47.076;15.412;2022-09-19T11:12:25;18.30;78.10
17266;DHT22;8749;47.076;15.412;2022-09-19T11:14:54;18.30;77.40
17266;DHT22;8749;47.076;15.412;2022-09-19T11:17:53;18.30;77.60
17266;DHT22;8749;47.076;15.412;2022-09-19T11:20:34;18.40;77.50
17266;DHT22;8749;47.076;15.412;2022-09-19T11:26:14;18.70;76.30
17266;DHT22;8749;47.076;15.412;2022-09-19T11:28:57;18.50;76.00
17266;DHT22;8749;47.076;15.412;2022-09-19T11:31:39;18.60;77.00
17266;DHT22;8749;47.076;15.412;2022-09-19T11:34:15;18.80;77.00
17266;DHT22;8749;47.076;15.412;2022-09-19T11:36:53;18.60;75.60
17266;DHT22;8749;47.076;15.412;2022-09-19T11:39:37;18.70;76.00
17266;DHT22;8749;47.076;15.412;2022-09-19T11:42:24;19.10;76.20
17266;DHT22;8749;47.076;15.412;2022-09-19T11:45:01;19.30;75.20
17266;DHT22;8749;47.076;15.412;2022-09-19T11:47:53;19.00;74.10
17266;DHT22;8749;47.076;15.412;2022-09-19T11:50:39;19.10;74.40
17266;DHT22;8749;47.076;15.412;2022-09-19T11:53:22;19.10;74.40
17266;DHT22;8749;47.076;15.412;2022-09-19T11:56:02;19.10;75.10
17266;DHT22;8749;47.076;15.412;2022-09-19T11:58:37;19.20;74.00
17266;DHT22;8749;47.076;15.412;2022-09-19T12:01:23;19.40;73.90
17266;DHT22;8749;47.076;15.412;2022-09-19T12:04:10;19.40;73.70
17266;DHT22;8749;47.076;15.412;2022-09-19T12:06:55;19.40;73.30
17266;DHT22;8749;47.076;15.412;2022-09-19T12:09:33;19.50;74.60
17266;DHT22;8749;47.076;15.412;2022-09-19T12:12:05;19.60;73.60
17266;DHT22;8749;47.076;15.412;2022-09-19T12:14:37;19.70;74.40
17266;DHT22;8749;47.076;15.412;2022-09-19T12:17:11;19.90;73.40
17266;DHT22;8749;47.076;15.412;2022-09-19T12:19:43;19.90;72.80
17266;DHT22;8749;47.076;15.412;2022-09-19T12:22:15;20.00;72.50
17266;DHT22;8749;47.076;15.412;2022-09-19T12:24:48;20.10;73.30
17266;DHT22;8749;47.076;15.412;2022-09-19T12:27:23;20.40;71.00
17266;DHT22;8749;47.076;15.412;2022-09-19T12:29:58;20.70;71.10
17266;DHT22;8749;47.076;15.412;2022-09-19T12:32:34;20.80;71.10
17266;DHT22;8749;47.076;15.412;2022-09-19T12:35:13;20.90;71.20
17266;DHT22;8749;47.076;15.412;2022-09-19T12:37:46;21.20;70.80
17266;DHT22;8749;47.076;15.412;2022-09-19T12:40:20;21.70;71.40
17266;DHT22;8749;47.076;15.412;2022-09-19T12:43:00;22.20;70.50
17266;DHT22;8749;47.076;15.412;2022-09-19T12:45:32;22.80;68.40
17266;DHT22;8749;47.076;15.412;2022-09-19T12:48:09;23.30;65.00
17266;DHT22;8749;47.076;15.412;2022-09-19T12:50:44;23.50;64.60
17266;DHT22;8749;47.076;15.412;2022-09-19T12:53:22;23.80;62.80
17266;DHT22;8749;47.076;15.412;2022-09-19T12:55:59;24.00;60.90
17266;DHT22;8749;47.076;15.412;2022-09-19T12:58:32;24.00;61.10
17266;DHT22;8749;47.076;15.412;2022-09-19T13:01:17;24.30;61.00
17266;DHT22;8749;47.076;15.412;2022-09-19T13:03:49;25.10;60.30
17266;DHT22;8749;47.076;15.412;2022-09-19T13:06:22;25.20;57.40
17266;DHT22;8749;47.076;15.412;2022-09-19T13:08:55;26.00;58.50
17266;DHT22;8749;47.076;15.412;2022-09-19T13:11:31;28.60;55.50
17266;DHT22;8749;47.076;15.412;2022-09-19T13:14:08;31.00;51.80
17266;DHT22;8749;47.076;15.412;2022-09-19T13:16:39;32.50;45.60
17266;DHT22;8749;47.076;15.412;2022-09-19T13:19:34;32.60;44.20
17266;DHT22;8749;47.076;15.412;2022-09-19T13:22:21;32.60;43.60
17266;DHT22;8749;47.076;15.412;2022-09-19T13:25:18;33.00;43.20
17266;DHT22;8749;47.076;15.412;2022-09-19T13:28:22;33.90;40.00
17266;DHT22;8749;47.076;15.412;2022-09-19T13:30:51;34.90;38.90
17266;DHT22;8749;47.076;15.412;2022-09-19T13:33:21;35.00;38.90
17266;DHT22;8749;47.076;15.412;2022-09-19T13:35:50;34.80;37.70
17266;DHT22;8749;47.076;15.412;2022-09-19T13:38:22;35.40;38.30
17266;DHT22;8749;47.076;15.412;2022-09-19T13:40:57;35.40;37.60
17266;DHT22;8749;47.076;15.412;2022-09-19T13:43:36;34.20;36.90
17266;DHT22;8749;47.076;15.412;2022-09-19T13:46:11;34.10;37.50
17266;DHT22;8749;47.076;15.412;2022-09-19T13:48:46;33.70;38.20
17266;DHT22;8749;47.076;15.412;2022-09-19T13:51:22;34.90;36.90
17266;DHT22;8749;47.076;15.412;2022-09-19T13:54:28;34.50;36.70
17266;DHT22;8749;47.076;15.412;2022-09-19T13:57:02;33.30;37.10
17266;DHT22;8749;47.076;15.412;2022-09-19T13:59:31;33.10;38.00
17266;DHT22;8749;47.076;15.412;2022-09-19T14:02:01;32.90;38.10
17266;DHT22;8749;47.076;15.412;2022-09-19T14:04:39;32.50;38.00
17266;DHT22;8749;47.076;15.412;2022-09-19T14:07:37;31.60;38.60
17266;DHT22;8749;47.076;15.412;2022-09-19T14:10:19;30.70;39.40
17266;DHT22;8749;47.076;15.412;2022-09-19T14:13:01;29.70;40.00
17266;DHT22;8749;47.076;15.412;2022-09-19T14:24:40;27.00;42.80
17266;DHT22;8749;47.076;15.412;2022-09-19T14:30:01;26.30;43.30
17266;DHT22;8749;47.076;15.412;2022-09-19T14:32:31;25.90;44.90
17266;DHT22;8749;47.076;15.412;2022-09-19T14:35:21;25.90;44.50
17266;DHT22;8749;47.076;15.412;2022-09-19T14:38:19;25.40;45.20
17266;DHT22;8749;47.076;15.412;2022-09-19T14:40:54;25.30;45.60
17266;DHT22;8749;47.076;15.412;2022-09-19T14:46:58;24.40;46.50
17266;DHT22;8749;47.076;15.412;2022-09-19T14:49:29;24.00;47.10
17266;DHT22;8749;47.076;15.412;2022-09-19T14:52:01;23.80;47.90
17266;DHT22;8749;47.076;15.412;2022-09-19T14:54:35;24.00;48.10
17266;DHT22;8749;47.076;15.412;2022-09-19T14:57:12;24.70;47.70
17266;DHT22;8749;47.076;15.412;2022-09-19T14:59:41;25.10;46.90
17266;DHT22;8749;47.076;15.412;2022-09-19T15:02:20;25.80;47.20
17266;DHT22;8749;47.076;15.412;2022-09-19T15:04:50;26.90;45.00
17266;DHT22;8749;47.076;15.412;2022-09-19T15:07:24;27.50;45.20
17266;DHT22;8749;47.076;15.412;2022-09-19T15:09:52;29.40;45.00
17266;DHT22;8749;47.076;15.412;2022-09-19T15:12:20;32.20;40.10
17266;DHT22;8749;47.076;15.412;2022-09-19T15:14:51;33.30;39.40
17266;DHT22;8749;47.076;15.412;2022-09-19T15:17:19;34.10;39.10
17266;DHT22;8749;47.076;15.412;2022-09-19T15:19:49;36.00;36.80
17266;DHT22;8749;47.076;15.412;2022-09-19T15:22:32;36.00;36.90
17266;DHT22;8749;47.076;15.412;2022-09-19T15:25:02;35.30;36.20
17266;DHT22;8749;47.076;15.412;2022-09-19T15:27:34;34.20;37.70
17266;DHT22;8749;47.076;15.412;2022-09-19T15:30:15;33.70;37.00
17266;DHT22;8749;47.076;15.412;2022-09-19T15:32:47;32.40;38.40
17266;DHT22;8749;47.076;15.412;2022-09-19T15:35:16;31.70;38.90
17266;DHT22;8749;47.076;15.412;2022-09-19T15:37:46;31.20;39.40
17266;DHT22;8749;47.076;15.412;2022-09-19T15:40:18;31.10;39.30
17266;DHT22;8749;47.076;15.412;2022-09-19T15:42:47;30.80;38.50
17266;DHT22;8749;47.076;15.412;2022-09-19T15:45:38;29.90;39.40
17266;DHT22;8749;47.076;15.412;2022-09-19T15:48:09;28.80;40.90
17266;DHT22;8749;47.076;15.412;2022-09-19T15:50:39;27.70;41.50
17266;DHT22;8749;47.076;15.412;2022-09-19T15:53:18;26.60;42.70
17266;DHT22;8749;47.076;15.412;2022-09-19T15:55:56;25.70;44.10
17266;DHT22;8749;47.076;15.412;2022-09-19T15:58:29;24.90;44.80
17266;DHT22;8749;47.076;15.412;2022-09-19T16:01:10;24.20;46.50
17266;DHT22;8749;47.076;15.412;2022-09-19T16:03:40;23.60;47.00
17266;DHT22;8749;47.076;15.412;2022-09-19T16:06:21;22.80;47.70
17266;DHT22;8749;47.076;15.412;2022-09-19T16:09:06;22.20;49.20
17266;DHT22;8749;47.076;15.412;2022-09-19T16:11:35;21.80;50.40
17266;DHT22;8749;47.076;15.412;2022-09-19T16:14:06;21.40;51.50
17266;DHT22;8749;47.076;15.412;2022-09-19T16:16:37;21.20;51.90
17266;DHT22;8749;47.076;15.412;2022-09-19T16:19:04;20.90;52.90
17266;DHT22;8749;47.076;15.412;2022-09-19T16:21:36;20.70;53.60
17266;DHT22;8749;47.076;15.412;2022-09-19T16:24:08;20.50;54.50